createdAt,value
2018-06-21T07:57:11.784Z,26.00
2018-06-21T07:59:41.294Z,26.10
2018-06-21T08:02:09.532Z,26.30
2018-06-21T08:04:37.709Z,26.20
2018-06-21T08:07:05.865Z,26.40
2018-06-21T08:09:34.040Z,26.60
2018-06-21T08:12:02.205Z,26.70
2018-06-21T08:14:30.444Z,27.00
2018-06-21T08:16:58.598Z,27.20
2018-06-21T08:19:26.791Z,27.40
2018-06-21T08:21:54.963Z,27.60
2018-06-21T08:24:23.133Z,27.80
2018-06-21T08:26:51.339Z,27.70
2018-06-21T08:29:19.448Z,27.60
2018-06-21T08:31:47.621Z,27.60
2018-06-21T08:34:15.797Z,27.90
2018-06-21T08:36:43.956Z,28.00
2018-06-21T08:39:12.131Z,27.80
2018-06-21T08:41:40.297Z,27.50
2018-06-21T08:44:08.460Z,27.10
2018-06-21T08:46:36.721Z,26.80
2018-06-21T08:49:04.897Z,26.90
2018-06-21T08:51:33.081Z,27.00
2018-06-21T08:54:01.284Z,27.10
2018-06-21T08:56:29.491Z,27.20
2018-06-21T08:58:57.679Z,27.20
2018-06-21T09:01:25.828Z,27.00
2018-06-21T09:03:54.119Z,27.10
2018-06-21T09:06:23.041Z,27.20
2018-06-21T09:08:51.252Z,27.60
2018-06-21T09:11:19.422Z,27.70
2018-06-21T09:13:47.613Z,27.50
2018-06-21T09:16:17.027Z,27.30
2018-06-21T09:18:45.228Z,27.20
2018-06-21T09:21:13.425Z,27.50
2018-06-21T09:23:41.592Z,27.50
2018-06-21T09:26:09.792Z,27.50
2018-06-21T09:28:38.037Z,27.50
2018-06-21T09:31:06.516Z,27.50
2018-06-21T09:33:34.684Z,27.60
2018-06-21T09:36:02.900Z,27.70
2018-06-21T09:38:36.507Z,28.00
2018-06-21T09:41:10.236Z,28.20
2018-06-21T09:43:50.300Z,28.10
2018-06-21T09:46:18.552Z,27.90
2018-06-21T09:48:52.632Z,27.80
2018-06-21T09:51:21.292Z,28.00
2018-06-21T09:53:50.405Z,27.90
2018-06-21T09:56:19.790Z,28.20
2018-06-21T09:58:47.977Z,28.70
2018-06-21T10:01:17.004Z,28.60
2018-06-21T10:03:45.901Z,28.50
2018-06-21T10:06:14.093Z,28.50
2018-06-21T10:08:42.324Z,28.60
2018-06-21T10:11:10.492Z,28.80
2018-06-21T10:13:38.684Z,29.20
2018-06-21T10:16:06.870Z,29.00
2018-06-21T10:18:35.053Z,28.70
2018-06-21T10:21:03.230Z,28.50
2018-06-21T10:23:31.400Z,28.10
2018-06-21T10:25:59.570Z,27.90
2018-06-21T10:28:27.753Z,27.90
2018-06-21T10:30:55.928Z,27.90
2018-06-21T10:33:24.112Z,27.80
2018-06-21T10:35:52.288Z,27.80
2018-06-21T10:38:20.492Z,27.90
2018-06-21T10:40:50.281Z,28.30
2018-06-21T10:43:18.511Z,28.50
2018-06-21T10:45:46.664Z,28.80
2018-06-21T10:48:14.863Z,28.90
2018-06-21T10:50:43.070Z,28.80
2018-06-21T10:53:11.253Z,28.70
2018-06-21T10:55:39.454Z,28.80
2018-06-21T10:58:08.514Z,28.90
2018-06-21T11:05:54.985Z,29.00
2018-06-21T11:08:23.200Z,29.10
2018-06-21T11:10:51.399Z,28.60
2018-06-21T11:13:19.573Z,28.40
2018-06-21T11:15:47.745Z,28.60
2018-06-21T11:18:15.933Z,28.80
2018-06-21T11:20:44.469Z,29.10
2018-06-21T11:23:14.644Z,29.40
2018-06-21T11:25:42.812Z,29.60
2018-06-21T11:28:12.213Z,29.70
2018-06-21T11:30:41.434Z,29.40
2018-06-21T11:33:09.630Z,29.00
2018-06-21T11:35:37.865Z,28.90
2018-06-21T11:38:08.189Z,28.90
2018-06-21T11:40:36.309Z,29.00
2018-06-21T11:43:05.166Z,29.20
2018-06-21T11:45:33.332Z,29.20
2018-06-21T11:48:01.520Z,29.20
2018-06-21T11:50:30.826Z,29.30
2018-06-21T11:52:59.002Z,29.40
2018-06-21T11:55:27.166Z,29.50
2018-06-21T11:57:55.328Z,29.60
2018-06-21T12:00:23.505Z,29.90
2018-06-21T12:02:51.673Z,30.10
2018-06-21T12:05:19.857Z,30.40
2018-06-21T12:07:48.030Z,30.50
2018-06-21T12:10:16.220Z,30.10
2018-06-21T12:12:44.404Z,29.90
2018-06-21T12:15:12.580Z,29.50
2018-06-21T12:17:40.741Z,28.80
2018-06-21T12:20:08.917Z,28.00
2018-06-21T12:22:37.115Z,27.60
2018-06-21T12:25:05.382Z,27.10
2018-06-21T12:27:33.562Z,26.80
2018-06-21T12:30:01.722Z,26.70
2018-06-21T12:32:29.954Z,26.70
2018-06-21T12:34:58.145Z,26.60
2018-06-21T12:37:26.334Z,26.30
2018-06-21T12:39:54.507Z,26.30
2018-06-21T12:42:22.692Z,26.10
2018-06-21T12:44:50.858Z,25.90
2018-06-21T12:47:19.043Z,25.80
2018-06-21T12:49:47.220Z,25.80
2018-06-21T12:52:15.403Z,25.80
2018-06-21T12:54:43.570Z,26.00
2018-06-21T12:59:39.688Z,26.60
2018-06-21T13:02:07.893Z,27.00
2018-06-21T13:04:36.113Z,27.20
2018-06-21T13:07:04.286Z,27.50
2018-06-21T13:09:43.906Z,27.90
2018-06-21T13:12:26.233Z,28.30
2018-06-21T13:14:55.017Z,28.50
2018-06-21T13:17:23.180Z,28.50
2018-06-21T13:19:51.790Z,28.50
2018-06-21T13:22:20.054Z,28.70
2018-06-21T13:25:50.879Z,28.80
2018-06-21T13:28:19.065Z,28.80
2018-06-21T13:30:47.221Z,28.50
2018-06-21T13:33:15.422Z,27.90
2018-06-21T13:35:43.591Z,27.30
2018-06-21T13:38:11.748Z,26.20
2018-06-21T13:40:39.904Z,25.10
2018-06-21T13:43:08.059Z,24.30
2018-06-21T13:45:36.224Z,23.30
2018-06-21T13:48:04.416Z,22.50
2018-06-21T13:50:32.556Z,21.90
2018-06-21T13:53:00.757Z,21.40
2018-06-21T13:55:28.905Z,21.00
2018-06-21T13:57:57.070Z,20.80
2018-06-21T14:00:25.225Z,20.60
2018-06-21T14:02:58.942Z,20.50
2018-06-21T14:05:27.137Z,20.40
2018-06-21T14:07:55.486Z,20.40
2018-06-21T14:10:23.488Z,20.40
2018-06-21T14:12:51.741Z,20.50
2018-06-21T14:15:20.166Z,20.70
2018-06-21T14:17:48.680Z,20.90
2018-06-21T14:20:20.338Z,21.20
2018-06-21T14:22:48.544Z,21.50
2018-06-21T14:25:17.118Z,21.70
2018-06-21T14:27:45.299Z,21.90
2018-06-21T14:30:13.590Z,22.30
2018-06-21T14:32:42.148Z,22.70
2018-06-21T14:35:13.206Z,23.20
2018-06-21T14:37:41.390Z,23.60
2018-06-21T14:40:09.568Z,24.00
2018-06-21T14:42:37.753Z,24.20
2018-06-21T14:45:05.946Z,24.50
2018-06-21T14:47:34.202Z,24.80
2018-06-21T14:50:02.369Z,24.90
2018-06-21T14:52:30.528Z,24.90
2018-06-21T14:54:58.862Z,24.80
2018-06-21T14:57:27.185Z,24.70
2018-06-21T14:59:55.485Z,24.60
2018-06-21T15:02:23.720Z,24.40
2018-06-21T15:04:54.100Z,24.20
2018-06-21T15:07:25.224Z,24.00
2018-06-21T15:09:53.477Z,23.80
2018-06-21T15:12:22.985Z,23.70
2018-06-21T15:14:51.197Z,23.60
2018-06-21T15:17:19.405Z,23.70
2018-06-21T15:19:47.556Z,23.90
2018-06-21T15:22:15.725Z,24.20
2018-06-21T15:24:43.901Z,24.60
2018-06-21T15:27:12.096Z,24.90
2018-06-21T15:29:40.289Z,25.10
2018-06-21T15:32:08.808Z,25.40
2018-06-21T15:34:40.052Z,25.40
2018-06-21T15:37:08.222Z,25.30
2018-06-21T15:42:05.270Z,24.80
2018-06-21T15:44:33.449Z,24.70
2018-06-21T15:47:01.625Z,24.80
2018-06-21T15:49:30.767Z,24.80
2018-06-21T15:51:58.946Z,25.00
2018-06-21T15:54:27.122Z,25.20
2018-06-21T15:56:55.297Z,25.30
2018-06-21T15:59:23.526Z,25.30
2018-06-21T16:01:52.684Z,25.20
2018-06-21T16:04:21.474Z,25.30
2018-06-21T16:06:52.776Z,25.20
2018-06-21T16:09:20.954Z,25.10
2018-06-21T16:11:49.125Z,24.90
2018-06-21T16:14:17.351Z,24.50
2018-06-21T16:16:45.525Z,24.10
2018-06-21T16:19:13.711Z,24.00
2018-06-21T16:21:41.952Z,24.20
2018-06-21T16:24:10.134Z,24.30
2018-06-21T16:26:38.309Z,24.30
2018-06-21T16:29:07.529Z,24.30
2018-06-21T16:31:36.009Z,24.30
2018-06-21T16:34:04.213Z,24.30
2018-06-21T16:36:32.392Z,24.30
2018-06-21T16:39:00.711Z,24.40
2018-06-21T16:41:28.871Z,24.60
2018-06-21T16:43:57.852Z,24.50
2018-06-21T16:46:26.040Z,24.50
2018-06-21T16:48:54.195Z,24.20
2018-06-21T16:51:22.404Z,24.00
2018-06-21T16:53:50.552Z,23.80
2018-06-21T16:56:18.767Z,23.60
2018-06-21T16:58:46.941Z,23.40
2018-06-21T17:01:15.109Z,23.30
2018-06-21T18:31:41.318Z,23.20
2018-06-21T18:34:09.501Z,22.00
2018-06-21T18:36:37.888Z,22.00
2018-06-21T18:39:08.342Z,21.90
2018-06-21T18:41:36.528Z,21.80
2018-06-21T18:44:04.733Z,21.80
2018-06-21T18:46:32.965Z,21.80
2018-06-21T18:49:01.177Z,21.70
2018-06-21T18:51:29.395Z,21.50
2018-06-21T18:53:57.576Z,21.30
2018-06-21T18:56:25.757Z,21.30
2018-06-21T18:58:53.921Z,21.00
2018-06-21T19:01:24.839Z,20.90
2018-06-21T19:03:53.049Z,20.80
2018-06-21T19:06:26.782Z,20.70
2018-06-21T19:09:02.060Z,20.60
2018-06-21T19:11:35.924Z,20.50
2018-06-21T19:14:04.205Z,20.50
2018-06-21T19:16:32.413Z,20.40
2018-06-21T19:19:00.622Z,20.40
2018-06-21T19:21:28.810Z,20.30
2018-06-21T19:23:57.060Z,20.20
2018-06-21T19:26:25.498Z,20.20
2018-06-21T19:28:53.712Z,20.10
2018-06-21T19:31:21.974Z,20.10
2018-06-21T19:33:50.202Z,20.00
2018-06-21T19:36:18.406Z,19.90
2018-06-21T19:38:46.600Z,19.90
2018-06-21T19:41:14.782Z,19.90
2018-06-21T19:43:42.980Z,19.90
2018-06-21T19:46:11.185Z,19.80
2018-06-21T19:48:39.646Z,19.80
2018-06-21T19:51:07.942Z,19.70
2018-06-21T19:53:36.153Z,19.70
2018-06-21T19:56:04.398Z,19.60
2018-06-21T19:58:32.589Z,19.60
2018-06-21T20:01:00.777Z,19.60
2018-06-21T20:03:29.020Z,19.60
2018-06-21T20:05:57.210Z,19.60
2018-06-21T20:08:25.409Z,19.50
2018-06-21T20:10:59.047Z,19.40
2018-06-21T20:13:27.221Z,19.40
2018-06-21T20:15:55.395Z,19.30
2018-06-21T20:18:23.652Z,19.20
2018-06-21T20:20:51.749Z,19.30
2018-06-21T20:23:20.532Z,19.10
2018-06-21T20:25:48.894Z,19.10
2018-06-21T20:28:17.619Z,19.00
2018-06-21T20:30:45.802Z,18.90
2018-06-21T20:33:14.008Z,18.90
2018-06-21T20:35:42.314Z,18.90
2018-06-21T20:38:10.541Z,18.80
2018-06-21T20:40:38.886Z,18.70
2018-06-21T20:43:07.048Z,18.70
2018-06-21T20:45:35.228Z,18.60
2018-06-21T20:48:03.421Z,18.60
2018-06-21T20:50:31.644Z,18.50
2018-06-21T20:52:59.760Z,18.50
2018-06-21T20:55:27.920Z,18.40
2018-06-21T20:57:56.105Z,18.40
2018-06-21T21:00:24.270Z,18.40
2018-06-21T21:05:20.384Z,18.30
2018-06-21T21:07:49.864Z,18.30
2018-06-21T21:10:18.712Z,18.30
2018-06-21T21:12:47.028Z,18.30
